sensor_id;sensor_type;location;lat;lon;timestamp;P1;durP1;ratioP1;P2;durP2;ratioP2
6131;SDS011;3097;42.692;23.278;2022-09-21T00:01:06;8.37;;;6.83;;
6131;SDS011;3097;42.692;23.278;2022-09-21T00:03:33;8.63;;;6.37;;
6131;SDS011;3097;42.692;23.278;2022-09-21T00:06:06;8.20;;;6.33;;
6131;SDS011;3097;42.692;23.278;2022-09-21T00:08:35;8.73;;;7.03;;
6131;SDS011;3097;42.692;23.278;2022-09-21T00:11:01;6.27;;;5.63;;
6131;SDS011;3097;42.692;23.278;2022-09-21T00:13:27;6.80;;;5.70;;
6131;SDS011;3097;42.692;23.278;2022-09-21T00:15:54;7.13;;;5.03;;
6131;SDS011;3097;42.692;23.278;2022-09-21T00:18:20;5.17;;;4.77;;
6131;SDS011;3097;42.692;23.278;2022-09-21T00:20:46;5.40;;;4.67;;
6131;SDS011;3097;42.692;23.278;2022-09-21T00:23:12;5.47;;;4.47;;
6131;SDS011;3097;42.692;23.278;2022-09-21T00:25:37;5.03;;;3.93;;
6131;SDS011;3097;42.692;23.278;2022-09-21T00:28:03;6.13;;;3.70;;
6131;SDS011;3097;42.692;23.278;2022-09-21T00:30:28;3.80;;;3.50;;
6131;SDS011;3097;42.692;23.278;2022-09-21T00:32:55;3.93;;;2.70;;
6131;SDS011;3097;42.692;23.278;2022-09-21T00:35:20;2.93;;;2.67;;
6131;SDS011;3097;42.692;23.278;2022-09-21T00:37:46;3.47;;;3.27;;
6131;SDS011;3097;42.692;23.278;2022-09-21T00:40:12;3.30;;;3.10;;
6131;SDS011;3097;42.692;23.278;2022-09-21T00:42:37;3.23;;;2.97;;
6131;SDS011;3097;42.692;23.278;2022-09-21T00:45:03;3.60;;;3.30;;
6131;SDS011;3097;42.692;23.278;2022-09-21T00:47:32;2.97;;;2.70;;
6131;SDS011;3097;42.692;23.278;2022-09-21T00:50:02;4.10;;;3.77;;
6131;SDS011;3097;42.692;23.278;2022-09-21T00:52:33;3.77;;;3.43;;
6131;SDS011;3097;42.692;23.278;2022-09-21T00:55:15;4.90;;;3.80;;
6131;SDS011;3097;42.692;23.278;2022-09-21T00:57:45;3.70;;;3.40;;
6131;SDS011;3097;42.692;23.278;2022-09-21T01:00:13;4.27;;;3.90;;
6131;SDS011;3097;42.692;23.278;2022-09-21T01:02:38;4.20;;;3.57;;
6131;SDS011;3097;42.692;23.278;2022-09-21T01:05:05;4.30;;;3.90;;
6131;SDS011;3097;42.692;23.278;2022-09-21T01:07:34;4.20;;;3.80;;
6131;SDS011;3097;42.692;23.278;2022-09-21T01:10:04;3.70;;;3.40;;
6131;SDS011;3097;42.692;23.278;2022-09-21T01:12:40;4.33;;;3.93;;
6131;SDS011;3097;42.692;23.278;2022-09-21T01:18:04;3.97;;;3.67;;
6131;SDS011;3097;42.692;23.278;2022-09-21T01:26:09;4.70;;;4.30;;
6131;SDS011;3097;42.692;23.278;2022-09-21T01:31:31;7.90;;;6.57;;
6131;SDS011;3097;42.692;23.278;2022-09-21T01:34:03;8.77;;;6.23;;
6131;SDS011;3097;42.692;23.278;2022-09-21T01:36:34;4.97;;;4.47;;
6131;SDS011;3097;42.692;23.278;2022-09-21T01:39:04;6.40;;;5.30;;
6131;SDS011;3097;42.692;23.278;2022-09-21T01:41:36;6.77;;;5.67;;
6131;SDS011;3097;42.692;23.278;2022-09-21T01:44:09;6.50;;;5.00;;
6131;SDS011;3097;42.692;23.278;2022-09-21T01:46:39;4.70;;;4.30;;
6131;SDS011;3097;42.692;23.278;2022-09-21T01:49:10;5.10;;;4.50;;
6131;SDS011;3097;42.692;23.278;2022-09-21T01:51:50;5.43;;;4.37;;
6131;SDS011;3097;42.692;23.278;2022-09-21T01:54:29;4.40;;;4.00;;
6131;SDS011;3097;42.692;23.278;2022-09-21T01:57:05;5.17;;;4.27;;
6131;SDS011;3097;42.692;23.278;2022-09-21T01:59:54;5.20;;;4.17;;
6131;SDS011;3097;42.692;23.278;2022-09-21T02:02:24;4.40;;;4.00;;
6131;SDS011;3097;42.692;23.278;2022-09-21T02:05:00;4.20;;;3.90;;
6131;SDS011;3097;42.692;23.278;2022-09-21T02:07:27;3.80;;;3.50;;
6131;SDS011;3097;42.692;23.278;2022-09-21T02:09:53;4.90;;;4.27;;
6131;SDS011;3097;42.692;23.278;2022-09-21T02:12:20;5.30;;;4.30;;
6131;SDS011;3097;42.692;23.278;2022-09-21T02:14:46;7.83;;;4.20;;
6131;SDS011;3097;42.692;23.278;2022-09-21T02:19:49;5.90;;;4.67;;
6131;SDS011;3097;42.692;23.278;2022-09-21T02:22:37;6.33;;;4.70;;
6131;SDS011;3097;42.692;23.278;2022-09-21T02:25:12;6.47;;;4.67;;
6131;SDS011;3097;42.692;23.278;2022-09-21T02:30:31;4.73;;;4.23;;
6131;SDS011;3097;42.692;23.278;2022-09-21T02:33:12;4.10;;;3.60;;
6131;SDS011;3097;42.692;23.278;2022-09-21T02:35:48;4.07;;;3.77;;
6131;SDS011;3097;42.692;23.278;2022-09-21T02:43:48;3.37;;;2.80;;
6131;SDS011;3097;42.692;23.278;2022-09-21T02:46:18;3.30;;;3.10;;
6131;SDS011;3097;42.692;23.278;2022-09-21T02:48:51;3.63;;;3.23;;
6131;SDS011;3097;42.692;23.278;2022-09-21T02:51:24;4.53;;;4.20;;
6131;SDS011;3097;42.692;23.278;2022-09-21T02:53:53;5.47;;;4.97;;
6131;SDS011;3097;42.692;23.278;2022-09-21T02:56:20;7.03;;;4.77;;
6131;SDS011;3097;42.692;23.278;2022-09-21T02:58:47;8.00;;;5.83;;
6131;SDS011;3097;42.692;23.278;2022-09-21T03:01:18;9.27;;;6.83;;
6131;SDS011;3097;42.692;23.278;2022-09-21T03:03:45;9.83;;;7.10;;
6131;SDS011;3097;42.692;23.278;2022-09-21T03:06:10;9.37;;;7.67;;
6131;SDS011;3097;42.692;23.278;2022-09-21T03:08:36;9.43;;;7.30;;
6131;SDS011;3097;42.692;23.278;2022-09-21T03:11:01;7.53;;;6.60;;
6131;SDS011;3097;42.692;23.278;2022-09-21T03:13:27;8.90;;;7.30;;
6131;SDS011;3097;42.692;23.278;2022-09-21T03:16:02;10.60;;;7.00;;
6131;SDS011;3097;42.692;23.278;2022-09-21T03:18:31;8.33;;;6.70;;
6131;SDS011;3097;42.692;23.278;2022-09-21T03:20:58;6.70;;;6.00;;
6131;SDS011;3097;42.692;23.278;2022-09-21T03:23:24;7.57;;;6.10;;
6131;SDS011;3097;42.692;23.278;2022-09-21T03:25:50;7.97;;;6.40;;
6131;SDS011;3097;42.692;23.278;2022-09-21T03:28:21;6.97;;;5.83;;
6131;SDS011;3097;42.692;23.278;2022-09-21T03:30:48;5.37;;;4.87;;
6131;SDS011;3097;42.692;23.278;2022-09-21T03:33:14;5.80;;;5.30;;
6131;SDS011;3097;42.692;23.278;2022-09-21T03:35:40;6.63;;;5.47;;
6131;SDS011;3097;42.692;23.278;2022-09-21T03:38:06;6.07;;;5.47;;
6131;SDS011;3097;42.692;23.278;2022-09-21T03:40:32;5.73;;;5.20;;
6131;SDS011;3097;42.692;23.278;2022-09-21T03:42:58;5.63;;;4.97;;
6131;SDS011;3097;42.692;23.278;2022-09-21T03:45:24;10.83;;;6.80;;
6131;SDS011;3097;42.692;23.278;2022-09-21T03:47:53;10.30;;;7.70;;
6131;SDS011;3097;42.692;23.278;2022-09-21T03:50:19;9.93;;;7.27;;
6131;SDS011;3097;42.692;23.278;2022-09-21T03:52:45;10.40;;;7.80;;
6131;SDS011;3097;42.692;23.278;2022-09-21T03:55:10;12.50;;;8.37;;
6131;SDS011;3097;42.692;23.278;2022-09-21T03:57:36;10.50;;;7.27;;
6131;SDS011;3097;42.692;23.278;2022-09-21T04:00:03;8.43;;;5.83;;
6131;SDS011;3097;42.692;23.278;2022-09-21T04:02:31;7.63;;;5.20;;
6131;SDS011;3097;42.692;23.278;2022-09-21T04:04:57;7.47;;;6.03;;
6131;SDS011;3097;42.692;23.278;2022-09-21T04:07:22;6.17;;;5.23;;
6131;SDS011;3097;42.692;23.278;2022-09-21T04:09:48;9.70;;;7.13;;
6131;SDS011;3097;42.692;23.278;2022-09-21T04:12:13;7.77;;;6.77;;
6131;SDS011;3097;42.692;23.278;2022-09-21T04:14:39;10.20;;;7.47;;
6131;SDS011;3097;42.692;23.278;2022-09-21T04:17:04;12.40;;;8.10;;
6131;SDS011;3097;42.692;23.278;2022-09-21T04:19:29;13.73;;;9.77;;
6131;SDS011;3097;42.692;23.278;2022-09-21T04:21:55;13.93;;;10.00;;
6131;SDS011;3097;42.692;23.278;2022-09-21T04:24:21;21.93;;;14.03;;
6131;SDS011;3097;42.692;23.278;2022-09-21T04:26:47;31.57;;;17.60;;
6131;SDS011;3097;42.692;23.278;2022-09-21T04:29:12;28.47;;;17.67;;
6131;SDS011;3097;42.692;23.278;2022-09-21T04:31:39;29.73;;;17.93;;
6131;SDS011;3097;42.692;23.278;2022-09-21T04:34:05;35.97;;;19.30;;
6131;SDS011;3097;42.692;23.278;2022-09-21T04:36:31;27.10;;;16.63;;
6131;SDS011;3097;42.692;23.278;2022-09-21T04:38:57;31.47;;;18.97;;
6131;SDS011;3097;42.692;23.278;2022-09-21T04:41:24;32.67;;;18.40;;
6131;SDS011;3097;42.692;23.278;2022-09-21T04:43:50;31.57;;;18.00;;
6131;SDS011;3097;42.692;23.278;2022-09-21T04:46:16;30.73;;;17.87;;
6131;SDS011;3097;42.692;23.278;2022-09-21T04:48:44;30.00;;;17.17;;
6131;SDS011;3097;42.692;23.278;2022-09-21T04:51:10;35.23;;;18.50;;
6131;SDS011;3097;42.692;23.278;2022-09-21T04:53:38;32.60;;;17.40;;
6131;SDS011;3097;42.692;23.278;2022-09-21T04:56:05;23.90;;;15.67;;
6131;SDS011;3097;42.692;23.278;2022-09-21T04:58:32;36.37;;;18.10;;
6131;SDS011;3097;42.692;23.278;2022-09-21T05:00:58;39.07;;;23.00;;
6131;SDS011;3097;42.692;23.278;2022-09-21T05:03:24;38.60;;;20.33;;
6131;SDS011;3097;42.692;23.278;2022-09-21T05:05:54;36.63;;;19.30;;
6131;SDS011;3097;42.692;23.278;2022-09-21T05:08:20;26.17;;;15.27;;
6131;SDS011;3097;42.692;23.278;2022-09-21T05:11:09;25.33;;;14.50;;
6131;SDS011;3097;42.692;23.278;2022-09-21T05:13:38;17.23;;;11.03;;
6131;SDS011;3097;42.692;23.278;2022-09-21T05:16:04;18.70;;;11.47;;
6131;SDS011;3097;42.692;23.278;2022-09-21T05:18:30;17.97;;;11.00;;
6131;SDS011;3097;42.692;23.278;2022-09-21T05:20:56;13.97;;;10.03;;
6131;SDS011;3097;42.692;23.278;2022-09-21T05:23:23;15.40;;;9.93;;
6131;SDS011;3097;42.692;23.278;2022-09-21T05:25:49;14.47;;;9.60;;
6131;SDS011;3097;42.692;23.278;2022-09-21T05:28:17;17.37;;;10.73;;
6131;SDS011;3097;42.692;23.278;2022-09-21T05:33:41;4.97;;;4.53;;
6131;SDS011;3097;42.692;23.278;2022-09-21T05:38:55;6.00;;;4.43;;
6131;SDS011;3097;42.692;23.278;2022-09-21T05:41:21;5.23;;;4.83;;
6131;SDS011;3097;42.692;23.278;2022-09-21T05:43:47;7.00;;;5.23;;
6131;SDS011;3097;42.692;23.278;2022-09-21T05:48:59;9.40;;;5.77;;
6131;SDS011;3097;42.692;23.278;2022-09-21T05:51:45;6.13;;;5.53;;
6131;SDS011;3097;42.692;23.278;2022-09-21T05:57:00;6.33;;;5.50;;
6131;SDS011;3097;42.692;23.278;2022-09-21T05:59:38;6.47;;;5.70;;
6131;SDS011;3097;42.692;23.278;2022-09-21T06:04:50;5.17;;;4.67;;
6131;SDS011;3097;42.692;23.278;2022-09-21T06:07:18;6.27;;;4.87;;
6131;SDS011;3097;42.692;23.278;2022-09-21T06:09:43;7.60;;;5.47;;
6131;SDS011;3097;42.692;23.278;2022-09-21T06:12:09;6.67;;;5.97;;
6131;SDS011;3097;42.692;23.278;2022-09-21T06:14:36;6.30;;;5.70;;
6131;SDS011;3097;42.692;23.278;2022-09-21T06:17:02;6.73;;;5.17;;
6131;SDS011;3097;42.692;23.278;2022-09-21T06:19:27;8.47;;;4.40;;
6131;SDS011;3097;42.692;23.278;2022-09-21T06:21:53;4.83;;;4.30;;
6131;SDS011;3097;42.692;23.278;2022-09-21T06:24:18;4.77;;;4.37;;
6131;SDS011;3097;42.692;23.278;2022-09-21T06:26:47;4.70;;;3.87;;
6131;SDS011;3097;42.692;23.278;2022-09-21T06:29:13;7.50;;;5.07;;
6131;SDS011;3097;42.692;23.278;2022-09-21T06:31:38;6.00;;;4.33;;
6131;SDS011;3097;42.692;23.278;2022-09-21T06:34:04;4.90;;;4.50;;
6131;SDS011;3097;42.692;23.278;2022-09-21T06:36:29;6.30;;;4.13;;
6131;SDS011;3097;42.692;23.278;2022-09-21T06:38:55;3.70;;;3.40;;
6131;SDS011;3097;42.692;23.278;2022-09-21T06:41:20;3.80;;;3.37;;
6131;SDS011;3097;42.692;23.278;2022-09-21T06:43:46;3.83;;;3.53;;
6131;SDS011;3097;42.692;23.278;2022-09-21T06:46:11;11.93;;;9.60;;
6131;SDS011;3097;42.692;23.278;2022-09-21T06:48:36;3.80;;;3.50;;
6131;SDS011;3097;42.692;23.278;2022-09-21T06:51:03;3.53;;;3.27;;
6131;SDS011;3097;42.692;23.278;2022-09-21T06:53:30;3.47;;;3.17;;
6131;SDS011;3097;42.692;23.278;2022-09-21T06:58:34;3.90;;;3.60;;
6131;SDS011;3097;42.692;23.278;2022-09-21T07:01:06;3.20;;;3.00;;
6131;SDS011;3097;42.692;23.278;2022-09-21T07:03:33;3.20;;;2.90;;
6131;SDS011;3097;42.692;23.278;2022-09-21T07:05:59;3.20;;;2.70;;
6131;SDS011;3097;42.692;23.278;2022-09-21T07:08:25;2.80;;;2.60;;
6131;SDS011;3097;42.692;23.278;2022-09-21T07:10:51;2.40;;;2.30;;
6131;SDS011;3097;42.692;23.278;2022-09-21T07:13:16;2.47;;;2.27;;
6131;SDS011;3097;42.692;23.278;2022-09-21T07:15:42;2.53;;;2.40;;
6131;SDS011;3097;42.692;23.278;2022-09-21T07:18:11;2.30;;;2.20;;
6131;SDS011;3097;42.692;23.278;2022-09-21T07:20:38;2.67;;;2.50;;
6131;SDS011;3097;42.692;23.278;2022-09-21T07:23:11;3.00;;;2.63;;
6131;SDS011;3097;42.692;23.278;2022-09-21T07:25:45;2.17;;;1.97;;
6131;SDS011;3097;42.692;23.278;2022-09-21T07:28:14;2.60;;;2.40;;
6131;SDS011;3097;42.692;23.278;2022-09-21T07:30:40;2.77;;;2.57;;
6131;SDS011;3097;42.692;23.278;2022-09-21T07:33:07;3.77;;;2.50;;
6131;SDS011;3097;42.692;23.278;2022-09-21T07:35:33;4.90;;;4.50;;
6131;SDS011;3097;42.692;23.278;2022-09-21T07:38:03;3.47;;;3.17;;
6131;SDS011;3097;42.692;23.278;2022-09-21T07:40:30;6.60;;;5.67;;
6131;SDS011;3097;42.692;23.278;2022-09-21T07:42:57;5.47;;;4.63;;
6131;SDS011;3097;42.692;23.278;2022-09-21T07:45:24;3.80;;;3.50;;
6131;SDS011;3097;42.692;23.278;2022-09-21T07:47:50;4.10;;;2.90;;
6131;SDS011;3097;42.692;23.278;2022-09-21T07:50:19;5.47;;;3.10;;
6131;SDS011;3097;42.692;23.278;2022-09-21T07:52:45;3.60;;;3.17;;
6131;SDS011;3097;42.692;23.278;2022-09-21T07:55:11;5.50;;;5.07;;
6131;SDS011;3097;42.692;23.278;2022-09-21T07:57:38;6.13;;;5.53;;
6131;SDS011;3097;42.692;23.278;2022-09-21T08:00:22;3.80;;;3.50;;
6131;SDS011;3097;42.692;23.278;2022-09-21T08:02:48;2.60;;;2.40;;
6131;SDS011;3097;42.692;23.278;2022-09-21T08:05:13;3.00;;;2.70;;
6131;SDS011;3097;42.692;23.278;2022-09-21T08:07:40;3.90;;;2.47;;
6131;SDS011;3097;42.692;23.278;2022-09-21T08:10:06;2.60;;;2.40;;
6131;SDS011;3097;42.692;23.278;2022-09-21T08:12:32;4.43;;;3.00;;
6131;SDS011;3097;42.692;23.278;2022-09-21T08:14:57;5.60;;;2.30;;
6131;SDS011;3097;42.692;23.278;2022-09-21T08:17:23;3.10;;;2.80;;
6131;SDS011;3097;42.692;23.278;2022-09-21T08:19:48;4.10;;;3.27;;
6131;SDS011;3097;42.692;23.278;2022-09-21T08:22:14;1.67;;;1.57;;
6131;SDS011;3097;42.692;23.278;2022-09-21T08:24:39;2.97;;;2.70;;
6131;SDS011;3097;42.692;23.278;2022-09-21T08:27:07;2.60;;;2.40;;
6131;SDS011;3097;42.692;23.278;2022-09-21T08:29:33;2.43;;;2.30;;
6131;SDS011;3097;42.692;23.278;2022-09-21T08:31:59;2.50;;;2.30;;
6131;SDS011;3097;42.692;23.278;2022-09-21T08:34:26;2.47;;;2.30;;
6131;SDS011;3097;42.692;23.278;2022-09-21T08:36:52;2.40;;;2.30;;
6131;SDS011;3097;42.692;23.278;2022-09-21T08:39:18;2.30;;;2.10;;
6131;SDS011;3097;42.692;23.278;2022-09-21T08:41:51;2.07;;;1.97;;
6131;SDS011;3097;42.692;23.278;2022-09-21T08:44:26;3.83;;;3.53;;
6131;SDS011;3097;42.692;23.278;2022-09-21T08:47:00;3.57;;;2.73;;
6131;SDS011;3097;42.692;23.278;2022-09-21T08:49:30;2.30;;;2.20;;
6131;SDS011;3097;42.692;23.278;2022-09-21T08:52:03;2.10;;;1.90;;
6131;SDS011;3097;42.692;23.278;2022-09-21T08:54:37;2.30;;;2.13;;
6131;SDS011;3097;42.692;23.278;2022-09-21T08:57:08;2.40;;;2.20;;
6131;SDS011;3097;42.692;23.278;2022-09-21T08:59:36;2.80;;;2.60;;
6131;SDS011;3097;42.692;23.278;2022-09-21T09:05:14;2.13;;;1.90;;
6131;SDS011;3097;42.692;23.278;2022-09-21T09:16:28;2.33;;;2.10;;
6131;SDS011;3097;42.692;23.278;2022-09-21T09:21:48;2.03;;;1.93;;
6131;SDS011;3097;42.692;23.278;2022-09-21T09:24:15;2.60;;;2.40;;
6131;SDS011;3097;42.692;23.278;2022-09-21T09:26:52;2.77;;;2.43;;
6131;SDS011;3097;42.692;23.278;2022-09-21T09:32:10;1.80;;;1.70;;
6131;SDS011;3097;42.692;23.278;2022-09-21T09:34:40;2.30;;;2.10;;
6131;SDS011;3097;42.692;23.278;2022-09-21T09:37:10;2.23;;;2.13;;
6131;SDS011;3097;42.692;23.278;2022-09-21T09:39:39;2.20;;;2.00;;
6131;SDS011;3097;42.692;23.278;2022-09-21T09:47:49;1.90;;;1.80;;
6131;SDS011;3097;42.692;23.278;2022-09-21T09:50:35;3.47;;;2.07;;
6131;SDS011;3097;42.692;23.278;2022-09-21T09:53:10;2.50;;;1.50;;
6131;SDS011;3097;42.692;23.278;2022-09-21T09:55:52;2.10;;;2.00;;
6131;SDS011;3097;42.692;23.278;2022-09-21T09:58:20;2.63;;;1.70;;
6131;SDS011;3097;42.692;23.278;2022-09-21T10:01:04;1.70;;;1.60;;
6131;SDS011;3097;42.692;23.278;2022-09-21T10:03:30;1.80;;;1.70;;
6131;SDS011;3097;42.692;23.278;2022-09-21T10:05:55;1.30;;;1.30;;
6131;SDS011;3097;42.692;23.278;2022-09-21T10:11:03;1.40;;;1.30;;
6131;SDS011;3097;42.692;23.278;2022-09-21T10:18:47;2.10;;;1.90;;
6131;SDS011;3097;42.692;23.278;2022-09-21T10:24:00;1.73;;;1.40;;
6131;SDS011;3097;42.692;23.278;2022-09-21T10:26:35;1.60;;;1.50;;
6131;SDS011;3097;42.692;23.278;2022-09-21T10:29:16;3.10;;;2.43;;
6131;SDS011;3097;42.692;23.278;2022-09-21T10:34:32;1.60;;;1.03;;
6131;SDS011;3097;42.692;23.278;2022-09-21T10:37:19;1.80;;;1.70;;
6131;SDS011;3097;42.692;23.278;2022-09-21T10:39:50;1.13;;;1.03;;
6131;SDS011;3097;42.692;23.278;2022-09-21T10:42:16;4.10;;;3.70;;
6131;SDS011;3097;42.692;23.278;2022-09-21T10:44:44;3.07;;;2.80;;
6131;SDS011;3097;42.692;23.278;2022-09-21T10:47:18;5.03;;;4.57;;
6131;SDS011;3097;42.692;23.278;2022-09-21T10:49:55;8.77;;;7.83;;
6131;SDS011;3097;42.692;23.278;2022-09-21T10:52:23;3.33;;;2.30;;
6131;SDS011;3097;42.692;23.278;2022-09-21T10:54:55;2.67;;;2.47;;
6131;SDS011;3097;42.692;23.278;2022-09-21T10:57:22;1.57;;;1.47;;
6131;SDS011;3097;42.692;23.278;2022-09-21T10:59:50;1.20;;;1.10;;
6131;SDS011;3097;42.692;23.278;2022-09-21T11:02:35;1.20;;;1.20;;
6131;SDS011;3097;42.692;23.278;2022-09-21T11:05:22;1.67;;;1.57;;
6131;SDS011;3097;42.692;23.278;2022-09-21T11:08:03;1.33;;;1.27;;
6131;SDS011;3097;42.692;23.278;2022-09-21T11:10:47;1.43;;;1.40;;
6131;SDS011;3097;42.692;23.278;2022-09-21T11:16:18;1.50;;;1.40;;
6131;SDS011;3097;42.692;23.278;2022-09-21T11:27:18;1.00;;;1.00;;
6131;SDS011;3097;42.692;23.278;2022-09-21T11:29:59;1.77;;;1.63;;
6131;SDS011;3097;42.692;23.278;2022-09-21T11:51:27;1.80;;;1.70;;
6131;SDS011;3097;42.692;23.278;2022-09-21T11:56:49;1.30;;;1.20;;
6131;SDS011;3097;42.692;23.278;2022-09-21T12:19:26;1.10;;;1.07;;
6131;SDS011;3097;42.692;23.278;2022-09-21T12:22:25;1.23;;;1.23;;
6131;SDS011;3097;42.692;23.278;2022-09-21T12:25:13;1.73;;;1.40;;
6131;SDS011;3097;42.692;23.278;2022-09-21T12:27:55;1.23;;;1.13;;
6131;SDS011;3097;42.692;23.278;2022-09-21T12:30:38;1.80;;;1.70;;
6131;SDS011;3097;42.692;23.278;2022-09-21T12:43:43;1.40;;;1.30;;
6131;SDS011;3097;42.692;23.278;2022-09-21T12:48:52;1.40;;;1.30;;
6131;SDS011;3097;42.692;23.278;2022-09-21T12:51:25;1.40;;;1.30;;
6131;SDS011;3097;42.692;23.278;2022-09-21T12:53:54;1.57;;;1.50;;
6131;SDS011;3097;42.692;23.278;2022-09-21T12:56:28;2.10;;;2.00;;
6131;SDS011;3097;42.692;23.278;2022-09-21T13:01:53;3.90;;;1.60;;
6131;SDS011;3097;42.692;23.278;2022-09-21T13:04:44;1.40;;;1.20;;
6131;SDS011;3097;42.692;23.278;2022-09-21T13:07:21;1.10;;;1.10;;
6131;SDS011;3097;42.692;23.278;2022-09-21T13:09:59;1.40;;;1.30;;
6131;SDS011;3097;42.692;23.278;2022-09-21T13:12:31;1.30;;;1.30;;
6131;SDS011;3097;42.692;23.278;2022-09-21T13:15:22;1.70;;;1.60;;
6131;SDS011;3097;42.692;23.278;2022-09-21T13:17:59;2.60;;;1.23;;
6131;SDS011;3097;42.692;23.278;2022-09-21T13:20:39;1.60;;;1.50;;
6131;SDS011;3097;42.692;23.278;2022-09-21T13:23:10;1.53;;;1.50;;
6131;SDS011;3097;42.692;23.278;2022-09-21T13:25:40;1.80;;;1.70;;
6131;SDS011;3097;42.692;23.278;2022-09-21T13:33:31;1.90;;;1.80;;
6131;SDS011;3097;42.692;23.278;2022-09-21T13:36:09;2.07;;;1.97;;
6131;SDS011;3097;42.692;23.278;2022-09-21T13:41:41;2.80;;;2.60;;
6131;SDS011;3097;42.692;23.278;2022-09-21T13:47:08;1.73;;;1.63;;
6131;SDS011;3097;42.692;23.278;2022-09-21T13:49:40;3.00;;;2.80;;
6131;SDS011;3097;42.692;23.278;2022-09-21T13:54:44;2.40;;;2.20;;
6131;SDS011;3097;42.692;23.278;2022-09-21T14:02:37;2.40;;;2.30;;
6131;SDS011;3097;42.692;23.278;2022-09-21T14:05:06;8.17;;;6.47;;
6131;SDS011;3097;42.692;23.278;2022-09-21T14:08:03;4.37;;;2.17;;
6131;SDS011;3097;42.692;23.278;2022-09-21T14:10:32;2.33;;;2.20;;
6131;SDS011;3097;42.692;23.278;2022-09-21T14:13:01;2.30;;;2.20;;
6131;SDS011;3097;42.692;23.278;2022-09-21T14:15:34;2.33;;;2.23;;
6131;SDS011;3097;42.692;23.278;2022-09-21T14:18:36;3.67;;;2.87;;
6131;SDS011;3097;42.692;23.278;2022-09-21T14:21:08;3.97;;;3.20;;
6131;SDS011;3097;42.692;23.278;2022-09-21T14:23:37;2.13;;;2.03;;
6131;SDS011;3097;42.692;23.278;2022-09-21T14:29:38;4.00;;;3.63;;
6131;SDS011;3097;42.692;23.278;2022-09-21T14:32:17;3.40;;;3.10;;
6131;SDS011;3097;42.692;23.278;2022-09-21T14:34:48;3.10;;;2.90;;
6131;SDS011;3097;42.692;23.278;2022-09-21T14:40:00;5.37;;;4.70;;
6131;SDS011;3097;42.692;23.278;2022-09-21T14:42:30;4.17;;;3.77;;
6131;SDS011;3097;42.692;23.278;2022-09-21T14:44:57;2.90;;;2.70;;
6131;SDS011;3097;42.692;23.278;2022-09-21T14:47:35;3.30;;;3.00;;
6131;SDS011;3097;42.692;23.278;2022-09-21T14:58:37;4.67;;;3.90;;
6131;SDS011;3097;42.692;23.278;2022-09-21T15:04:01;4.10;;;3.70;;
6131;SDS011;3097;42.692;23.278;2022-09-21T15:13:30;3.57;;;3.20;;
6131;SDS011;3097;42.692;23.278;2022-09-21T15:19:19;6.37;;;3.57;;
6131;SDS011;3097;42.692;23.278;2022-09-21T15:21:45;4.40;;;4.00;;
6131;SDS011;3097;42.692;23.278;2022-09-21T15:24:17;3.13;;;2.93;;
6131;SDS011;3097;42.692;23.278;2022-09-21T15:29:30;3.07;;;2.87;;
6131;SDS011;3097;42.692;23.278;2022-09-21T15:31:58;3.20;;;2.90;;
6131;SDS011;3097;42.692;23.278;2022-09-21T15:34:25;5.67;;;4.53;;
6131;SDS011;3097;42.692;23.278;2022-09-21T15:36:52;3.40;;;3.03;;
6131;SDS011;3097;42.692;23.278;2022-09-21T15:39:22;2.77;;;2.57;;
6131;SDS011;3097;42.692;23.278;2022-09-21T15:42:07;2.93;;;2.60;;
6131;SDS011;3097;42.692;23.278;2022-09-21T15:44:42;2.47;;;2.27;;
6131;SDS011;3097;42.692;23.278;2022-09-21T15:47:14;3.07;;;2.80;;
6131;SDS011;3097;42.692;23.278;2022-09-21T15:49:44;2.97;;;2.77;;
6131;SDS011;3097;42.692;23.278;2022-09-21T15:54:43;4.23;;;3.83;;
6131;SDS011;3097;42.692;23.278;2022-09-21T15:59:53;5.47;;;4.53;;
6131;SDS011;3097;42.692;23.278;2022-09-21T16:02:20;5.63;;;4.97;;
6131;SDS011;3097;42.692;23.278;2022-09-21T16:04:48;8.60;;;5.90;;
6131;SDS011;3097;42.692;23.278;2022-09-21T16:09:54;4.87;;;4.37;;
6131;SDS011;3097;42.692;23.278;2022-09-21T16:12:41;7.60;;;5.50;;
6131;SDS011;3097;42.692;23.278;2022-09-21T16:17:37;9.30;;;6.37;;
6131;SDS011;3097;42.692;23.278;2022-09-21T16:20:04;9.40;;;6.47;;
6131;SDS011;3097;42.692;23.278;2022-09-21T16:22:39;7.97;;;5.87;;
6131;SDS011;3097;42.692;23.278;2022-09-21T16:28:08;12.60;;;7.70;;
6131;SDS011;3097;42.692;23.278;2022-09-21T16:30:53;12.93;;;7.97;;
6131;SDS011;3097;42.692;23.278;2022-09-21T16:38:41;23.93;;;12.23;;
6131;SDS011;3097;42.692;23.278;2022-09-21T16:41:08;27.80;;;14.23;;
6131;SDS011;3097;42.692;23.278;2022-09-21T16:43:34;24.00;;;14.13;;
6131;SDS011;3097;42.692;23.278;2022-09-21T16:46:07;15.27;;;7.40;;
6131;SDS011;3097;42.692;23.278;2022-09-21T16:48:35;16.07;;;8.37;;
6131;SDS011;3097;42.692;23.278;2022-09-21T16:51:02;15.37;;;9.90;;
6131;SDS011;3097;42.692;23.278;2022-09-21T16:53:29;15.73;;;8.37;;
6131;SDS011;3097;42.692;23.278;2022-09-21T16:55:54;11.23;;;7.20;;
6131;SDS011;3097;42.692;23.278;2022-09-21T16:58:20;11.23;;;7.40;;
6131;SDS011;3097;42.692;23.278;2022-09-21T17:00:47;19.30;;;11.03;;
6131;SDS011;3097;42.692;23.278;2022-09-21T17:03:16;19.77;;;11.50;;
6131;SDS011;3097;42.692;23.278;2022-09-21T17:05:41;24.77;;;14.40;;
6131;SDS011;3097;42.692;23.278;2022-09-21T17:08:08;21.20;;;11.77;;
6131;SDS011;3097;42.692;23.278;2022-09-21T17:10:35;10.13;;;6.97;;
6131;SDS011;3097;42.692;23.278;2022-09-21T17:13:03;7.17;;;5.73;;
6131;SDS011;3097;42.692;23.278;2022-09-21T17:15:33;10.87;;;6.40;;
6131;SDS011;3097;42.692;23.278;2022-09-21T17:18:08;12.77;;;7.43;;
6131;SDS011;3097;42.692;23.278;2022-09-21T17:20:39;9.00;;;6.93;;
6131;SDS011;3097;42.692;23.278;2022-09-21T17:23:06;18.70;;;9.67;;
6131;SDS011;3097;42.692;23.278;2022-09-21T17:25:32;12.40;;;8.13;;
6131;SDS011;3097;42.692;23.278;2022-09-21T17:27:59;13.30;;;8.40;;
6131;SDS011;3097;42.692;23.278;2022-09-21T17:30:27;10.33;;;7.57;;
6131;SDS011;3097;42.692;23.278;2022-09-21T17:32:53;9.90;;;7.43;;
6131;SDS011;3097;42.692;23.278;2022-09-21T17:35:30;13.90;;;9.77;;
6131;SDS011;3097;42.692;23.278;2022-09-21T17:37:57;14.13;;;9.53;;
6131;SDS011;3097;42.692;23.278;2022-09-21T17:40:27;10.87;;;8.37;;
6131;SDS011;3097;42.692;23.278;2022-09-21T17:42:55;9.33;;;6.40;;
6131;SDS011;3097;42.692;23.278;2022-09-21T17:45:51;21.33;;;12.30;;
6131;SDS011;3097;42.692;23.278;2022-09-21T17:48:22;12.77;;;7.90;;
6131;SDS011;3097;42.692;23.278;2022-09-21T17:50:48;12.57;;;8.50;;
6131;SDS011;3097;42.692;23.278;2022-09-21T17:53:14;10.83;;;8.17;;
6131;SDS011;3097;42.692;23.278;2022-09-21T17:56:12;9.13;;;6.07;;
6131;SDS011;3097;42.692;23.278;2022-09-21T17:59:01;7.33;;;6.10;;
6131;SDS011;3097;42.692;23.278;2022-09-21T18:01:35;10.63;;;7.00;;
6131;SDS011;3097;42.692;23.278;2022-09-21T18:04:04;9.60;;;7.07;;
6131;SDS011;3097;42.692;23.278;2022-09-21T18:06:31;15.73;;;8.67;;
6131;SDS011;3097;42.692;23.278;2022-09-21T18:09:01;12.37;;;9.17;;
6131;SDS011;3097;42.692;23.278;2022-09-21T18:14:43;20.53;;;11.47;;
6131;SDS011;3097;42.692;23.278;2022-09-21T18:17:38;12.60;;;8.83;;
6131;SDS011;3097;42.692;23.278;2022-09-21T18:20:27;10.00;;;6.73;;
6131;SDS011;3097;42.692;23.278;2022-09-21T18:23:05;5.83;;;5.20;;
6131;SDS011;3097;42.692;23.278;2022-09-21T18:25:54;5.83;;;5.20;;
6131;SDS011;3097;42.692;23.278;2022-09-21T18:28:34;8.10;;;5.20;;
6131;SDS011;3097;42.692;23.278;2022-09-21T18:31:14;8.40;;;5.83;;
6131;SDS011;3097;42.692;23.278;2022-09-21T18:34:12;13.67;;;8.83;;
6131;SDS011;3097;42.692;23.278;2022-09-21T18:42:23;14.33;;;8.37;;
6131;SDS011;3097;42.692;23.278;2022-09-21T18:45:13;11.60;;;7.33;;
6131;SDS011;3097;42.692;23.278;2022-09-21T18:55:59;6.30;;;5.53;;
6131;SDS011;3097;42.692;23.278;2022-09-21T18:58:25;8.67;;;6.10;;
6131;SDS011;3097;42.692;23.278;2022-09-21T19:00:51;8.43;;;6.50;;
6131;SDS011;3097;42.692;23.278;2022-09-21T19:03:17;7.87;;;6.70;;
6131;SDS011;3097;42.692;23.278;2022-09-21T19:06:45;8.37;;;6.17;;
6131;SDS011;3097;42.692;23.278;2022-09-21T19:12:10;7.83;;;6.13;;